sensor_id;sensor_type;location;lat;lon;timestamp;P1;durP1;ratioP1;P2;durP2;ratioP2
37867;SDS011;24011;48.880;9.190;2023-03-01T00:01:00;1.45;;;1.35;;
37867;SDS011;24011;48.880;9.190;2023-03-01T00:03:37;1.77;;;1.67;;
37867;SDS011;24011;48.880;9.190;2023-03-01T00:06:12;1.60;;;1.50;;
37867;SDS011;24011;48.880;9.190;2023-03-01T00:08:51;1.40;;;1.30;;
37867;SDS011;24011;48.880;9.190;2023-03-01T00:11:25;1.50;;;1.40;;
37867;SDS011;24011;48.880;9.190;2023-03-01T00:13:59;1.58;;;1.48;;
37867;SDS011;24011;48.880;9.190;2023-03-01T00:16:35;1.38;;;1.27;;
37867;SDS011;24011;48.880;9.190;2023-03-01T00:19:12;1.33;;;1.23;;
37867;SDS011;24011;48.880;9.190;2023-03-01T00:21:46;1.10;;;1.10;;
37867;SDS011;24011;48.880;9.190;2023-03-01T00:24:18;1.17;;;1.17;;
37867;SDS011;24011;48.880;9.190;2023-03-01T00:26:52;1.40;;;1.30;;
37867;SDS011;24011;48.880;9.190;2023-03-01T00:29:27;1.45;;;1.35;;
37867;SDS011;24011;48.880;9.190;2023-03-01T00:32:00;1.58;;;1.48;;
37867;SDS011;24011;48.880;9.190;2023-03-01T00:34:42;1.70;;;1.60;;
37867;SDS011;24011;48.880;9.190;2023-03-01T00:37:24;1.48;;;1.38;;
37867;SDS011;24011;48.880;9.190;2023-03-01T00:39:58;1.40;;;1.30;;
37867;SDS011;24011;48.880;9.190;2023-03-01T00:42:36;1.63;;;1.48;;
37867;SDS011;24011;48.880;9.190;2023-03-01T00:45:12;1.40;;;1.30;;
37867;SDS011;24011;48.880;9.190;2023-03-01T00:47:48;1.52;;;1.42;;
37867;SDS011;24011;48.880;9.190;2023-03-01T00:50:23;1.33;;;1.23;;
37867;SDS011;24011;48.880;9.190;2023-03-01T00:52:56;1.50;;;1.40;;
37867;SDS011;24011;48.880;9.190;2023-03-01T00:55:34;1.20;;;1.20;;
37867;SDS011;24011;48.880;9.190;2023-03-01T00:58:07;1.38;;;1.27;;
37867;SDS011;24011;48.880;9.190;2023-03-01T01:00:40;1.10;;;1.10;;
37867;SDS011;24011;48.880;9.190;2023-03-01T01:03:12;1.27;;;1.17;;
37867;SDS011;24011;48.880;9.190;2023-03-01T01:05:49;1.33;;;1.23;;
37867;SDS011;24011;48.880;9.190;2023-03-01T01:08:27;1.40;;;1.30;;
37867;SDS011;24011;48.880;9.190;2023-03-01T01:10:58;1.00;;;1.00;;
37867;SDS011;24011;48.880;9.190;2023-03-01T01:13:29;1.35;;;1.25;;
37867;SDS011;24011;48.880;9.190;2023-03-01T01:16:01;1.52;;;1.42;;
37867;SDS011;24011;48.880;9.190;2023-03-01T01:18:33;1.27;;;1.23;;
37867;SDS011;24011;48.880;9.190;2023-03-01T01:21:08;1.40;;;1.30;;
37867;SDS011;24011;48.880;9.190;2023-03-01T01:23:42;1.33;;;1.23;;
37867;SDS011;24011;48.880;9.190;2023-03-01T01:26:19;1.55;;;1.45;;
37867;SDS011;24011;48.880;9.190;2023-03-01T01:28:55;1.30;;;1.20;;
37867;SDS011;24011;48.880;9.190;2023-03-01T01:31:28;1.40;;;1.30;;
37867;SDS011;24011;48.880;9.190;2023-03-01T01:34:00;1.27;;;1.23;;
37867;SDS011;24011;48.880;9.190;2023-03-01T01:36:37;1.40;;;1.30;;
37867;SDS011;24011;48.880;9.190;2023-03-01T01:39:09;1.30;;;1.20;;
37867;SDS011;24011;48.880;9.190;2023-03-01T01:41:42;1.50;;;1.40;;
37867;SDS011;24011;48.880;9.190;2023-03-01T01:44:16;1.40;;;1.30;;
37867;SDS011;24011;48.880;9.190;2023-03-01T01:46:50;1.40;;;1.30;;
37867;SDS011;24011;48.880;9.190;2023-03-01T01:49:29;1.17;;;1.17;;
37867;SDS011;24011;48.880;9.190;2023-03-01T01:52:10;1.40;;;1.30;;
37867;SDS011;24011;48.880;9.190;2023-03-01T01:57:19;1.50;;;1.40;;
37867;SDS011;24011;48.880;9.190;2023-03-01T01:59:53;1.45;;;1.35;;
37867;SDS011;24011;48.880;9.190;2023-03-01T02:02:30;1.30;;;1.30;;
37867;SDS011;24011;48.880;9.190;2023-03-01T02:07:39;1.50;;;1.40;;
37867;SDS011;24011;48.880;9.190;2023-03-01T02:10:13;1.50;;;1.40;;
37867;SDS011;24011;48.880;9.190;2023-03-01T02:12:47;1.50;;;1.40;;
37867;SDS011;24011;48.880;9.190;2023-03-01T02:15:19;1.45;;;1.35;;
37867;SDS011;24011;48.880;9.190;2023-03-01T02:17:53;1.33;;;1.23;;
37867;SDS011;24011;48.880;9.190;2023-03-01T02:20:28;1.15;;;1.15;;
37867;SDS011;24011;48.880;9.190;2023-03-01T02:23:07;1.40;;;1.30;;
37867;SDS011;24011;48.880;9.190;2023-03-01T02:25:43;1.38;;;1.27;;
37867;SDS011;24011;48.880;9.190;2023-03-01T02:28:25;1.50;;;1.40;;
37867;SDS011;24011;48.880;9.190;2023-03-01T02:30:59;1.40;;;1.30;;
37867;SDS011;24011;48.880;9.190;2023-03-01T02:33:48;1.50;;;1.40;;
37867;SDS011;24011;48.880;9.190;2023-03-01T02:36:20;1.50;;;1.40;;
37867;SDS011;24011;48.880;9.190;2023-03-01T02:38:56;1.25;;;1.10;;
37867;SDS011;24011;48.880;9.190;2023-03-01T02:41:28;1.40;;;1.30;;
37867;SDS011;24011;48.880;9.190;2023-03-01T02:44:12;1.38;;;1.27;;
37867;SDS011;24011;48.880;9.190;2023-03-01T02:46:46;1.38;;;1.27;;
37867;SDS011;24011;48.880;9.190;2023-03-01T02:49:21;1.50;;;1.40;;
37867;SDS011;24011;48.880;9.190;2023-03-01T02:52:08;1.65;;;1.55;;
37867;SDS011;24011;48.880;9.190;2023-03-01T02:55:09;1.15;;;1.15;;
37867;SDS011;24011;48.880;9.190;2023-03-01T02:57:47;1.50;;;1.40;;
37867;SDS011;24011;48.880;9.190;2023-03-01T03:00:28;1.70;;;1.60;;
37867;SDS011;24011;48.880;9.190;2023-03-01T03:03:03;1.50;;;1.40;;
37867;SDS011;24011;48.880;9.190;2023-03-01T03:05:36;1.60;;;1.50;;
37867;SDS011;24011;48.880;9.190;2023-03-01T03:08:08;1.60;;;1.50;;
37867;SDS011;24011;48.880;9.190;2023-03-01T03:10:42;1.50;;;1.40;;
37867;SDS011;24011;48.880;9.190;2023-03-01T03:15:46;1.30;;;1.20;;
37867;SDS011;24011;48.880;9.190;2023-03-01T03:18:18;1.50;;;1.40;;
37867;SDS011;24011;48.880;9.190;2023-03-01T03:20:51;1.55;;;1.45;;
37867;SDS011;24011;48.880;9.190;2023-03-01T03:23:25;1.45;;;1.35;;
37867;SDS011;24011;48.880;9.190;2023-03-01T03:26:00;1.58;;;1.48;;
37867;SDS011;24011;48.880;9.190;2023-03-01T03:28:34;1.50;;;1.40;;
37867;SDS011;24011;48.880;9.190;2023-03-01T03:31:12;1.33;;;1.23;;
37867;SDS011;24011;48.880;9.190;2023-03-01T03:33:45;1.50;;;1.40;;
37867;SDS011;24011;48.880;9.190;2023-03-01T03:36:18;1.58;;;1.48;;
37867;SDS011;24011;48.880;9.190;2023-03-01T03:38:52;1.70;;;1.60;;
37867;SDS011;24011;48.880;9.190;2023-03-01T03:41:23;1.60;;;1.50;;
37867;SDS011;24011;48.880;9.190;2023-03-01T03:43:58;1.60;;;1.50;;
37867;SDS011;24011;48.880;9.190;2023-03-01T03:46:33;1.25;;;1.25;;
37867;SDS011;24011;48.880;9.190;2023-03-01T03:49:06;1.52;;;1.42;;
37867;SDS011;24011;48.880;9.190;2023-03-01T03:51:38;1.50;;;1.40;;
37867;SDS011;24011;48.880;9.190;2023-03-01T03:54:13;1.70;;;1.60;;
37867;SDS011;24011;48.880;9.190;2023-03-01T03:56:45;1.90;;;1.80;;
37867;SDS011;24011;48.880;9.190;2023-03-01T03:59:17;1.95;;;1.85;;
37867;SDS011;24011;48.880;9.190;2023-03-01T04:01:51;1.65;;;1.55;;
37867;SDS011;24011;48.880;9.190;2023-03-01T04:04:26;2.17;;;2.00;;
37867;SDS011;24011;48.880;9.190;2023-03-01T04:06:57;1.87;;;1.77;;
37867;SDS011;24011;48.880;9.190;2023-03-01T04:09:31;2.10;;;2.00;;
37867;SDS011;24011;48.880;9.190;2023-03-01T04:12:02;2.25;;;2.15;;
37867;SDS011;24011;48.880;9.190;2023-03-01T04:14:33;1.95;;;1.85;;
37867;SDS011;24011;48.880;9.190;2023-03-01T04:17:08;2.20;;;2.10;;
37867;SDS011;24011;48.880;9.190;2023-03-01T04:19:39;2.35;;;2.15;;
37867;SDS011;24011;48.880;9.190;2023-03-01T04:22:11;2.28;;;2.17;;
37867;SDS011;24011;48.880;9.190;2023-03-01T04:24:49;2.40;;;2.20;;
37867;SDS011;24011;48.880;9.190;2023-03-01T04:27:26;2.33;;;2.22;;
37867;SDS011;24011;48.880;9.190;2023-03-01T04:30:00;2.40;;;2.20;;
37867;SDS011;24011;48.880;9.190;2023-03-01T04:32:36;2.45;;;2.25;;
37867;SDS011;24011;48.880;9.190;2023-03-01T04:35:09;2.22;;;2.13;;
37867;SDS011;24011;48.880;9.190;2023-03-01T04:37:41;2.70;;;2.50;;
37867;SDS011;24011;48.880;9.190;2023-03-01T04:40:13;2.67;;;2.47;;
37867;SDS011;24011;48.880;9.190;2023-03-01T04:42:45;2.35;;;2.25;;
37867;SDS011;24011;48.880;9.190;2023-03-01T04:45:19;2.55;;;2.35;;
37867;SDS011;24011;48.880;9.190;2023-03-01T04:47:52;2.17;;;2.08;;
37867;SDS011;24011;48.880;9.190;2023-03-01T04:50:26;2.72;;;2.53;;
37867;SDS011;24011;48.880;9.190;2023-03-01T04:53:00;2.85;;;2.65;;
37867;SDS011;24011;48.880;9.190;2023-03-01T04:55:31;2.55;;;2.35;;
37867;SDS011;24011;48.880;9.190;2023-03-01T04:58:05;2.60;;;2.40;;
37867;SDS011;24011;48.880;9.190;2023-03-01T05:00:40;2.90;;;2.70;;
37867;SDS011;24011;48.880;9.190;2023-03-01T05:03:14;2.50;;;2.30;;
37867;SDS011;24011;48.880;9.190;2023-03-01T05:05:46;2.70;;;2.50;;
37867;SDS011;24011;48.880;9.190;2023-03-01T05:08:19;2.45;;;2.25;;
37867;SDS011;24011;48.880;9.190;2023-03-01T05:10:51;2.60;;;2.40;;
37867;SDS011;24011;48.880;9.190;2023-03-01T05:13:22;2.72;;;2.53;;
37867;SDS011;24011;48.880;9.190;2023-03-01T05:15:56;2.53;;;2.33;;
37867;SDS011;24011;48.880;9.190;2023-03-01T05:18:33;2.65;;;2.45;;
37867;SDS011;24011;48.880;9.190;2023-03-01T05:21:06;2.78;;;2.58;;
37867;SDS011;24011;48.880;9.190;2023-03-01T05:23:37;2.78;;;2.58;;
37867;SDS011;24011;48.880;9.190;2023-03-01T05:28:54;2.67;;;2.47;;
37867;SDS011;24011;48.880;9.190;2023-03-01T05:31:27;2.90;;;2.70;;
37867;SDS011;24011;48.880;9.190;2023-03-01T05:34:00;2.80;;;2.60;;
37867;SDS011;24011;48.880;9.190;2023-03-01T05:36:30;2.78;;;2.58;;
37867;SDS011;24011;48.880;9.190;2023-03-01T05:39:02;2.80;;;2.60;;
37867;SDS011;24011;48.880;9.190;2023-03-01T05:41:32;2.85;;;2.65;;
37867;SDS011;24011;48.880;9.190;2023-03-01T05:44:05;2.22;;;2.13;;
37867;SDS011;24011;48.880;9.190;2023-03-01T05:46:40;2.88;;;2.67;;
37867;SDS011;24011;48.880;9.190;2023-03-01T05:49:12;2.53;;;2.35;;
37867;SDS011;24011;48.880;9.190;2023-03-01T05:51:43;2.53;;;2.08;;
37867;SDS011;24011;48.880;9.190;2023-03-01T05:54:17;2.67;;;2.47;;
37867;SDS011;24011;48.880;9.190;2023-03-01T05:56:47;2.50;;;2.40;;
37867;SDS011;24011;48.880;9.190;2023-03-01T05:59:17;2.70;;;2.50;;
37867;SDS011;24011;48.880;9.190;2023-03-01T06:01:47;2.85;;;2.65;;
37867;SDS011;24011;48.880;9.190;2023-03-01T06:04:19;3.67;;;2.60;;
37867;SDS011;24011;48.880;9.190;2023-03-01T06:06:49;2.53;;;2.33;;
37867;SDS011;24011;48.880;9.190;2023-03-01T06:09:19;2.72;;;2.53;;
37867;SDS011;24011;48.880;9.190;2023-03-01T06:11:49;2.75;;;2.55;;
37867;SDS011;24011;48.880;9.190;2023-03-01T06:48:56;2.78;;;2.58;;
37867;SDS011;24011;48.880;9.190;2023-03-01T06:51:26;2.70;;;2.50;;
37867;SDS011;24011;48.880;9.190;2023-03-01T06:53:58;2.90;;;2.63;;
37867;SDS011;24011;48.880;9.190;2023-03-01T06:56:28;2.90;;;2.70;;
37867;SDS011;24011;48.880;9.190;2023-03-01T06:58:58;3.05;;;2.85;;
37867;SDS011;24011;48.880;9.190;2023-03-01T07:01:27;2.85;;;2.65;;
37867;SDS011;24011;48.880;9.190;2023-03-01T07:04:00;2.70;;;2.50;;
37867;SDS011;24011;48.880;9.190;2023-03-01T07:06:30;2.88;;;2.67;;
37867;SDS011;24011;48.880;9.190;2023-03-01T07:08:59;2.70;;;2.50;;
37867;SDS011;24011;48.880;9.190;2023-03-01T07:11:29;3.20;;;2.90;;
37867;SDS011;24011;48.880;9.190;2023-03-01T07:13:58;3.00;;;2.80;;
37867;SDS011;24011;48.880;9.190;2023-03-01T07:16:28;3.75;;;2.70;;
37867;SDS011;24011;48.880;9.190;2023-03-01T07:18:58;2.67;;;2.47;;
37867;SDS011;24011;48.880;9.190;2023-03-01T07:21:31;2.83;;;2.63;;
37867;SDS011;24011;48.880;9.190;2023-03-01T07:24:00;2.58;;;2.38;;
37867;SDS011;24011;48.880;9.190;2023-03-01T07:35:07;2.90;;;2.70;;
37867;SDS011;24011;48.880;9.190;2023-03-01T07:37:41;3.13;;;2.92;;
37867;SDS011;24011;48.880;9.190;2023-03-01T07:40:12;2.90;;;2.70;;
37867;SDS011;24011;48.880;9.190;2023-03-01T07:42:45;2.92;;;2.72;;
37867;SDS011;24011;48.880;9.190;2023-03-01T07:45:15;2.70;;;2.50;;
37867;SDS011;24011;48.880;9.190;2023-03-01T07:47:44;2.80;;;2.60;;
37867;SDS011;24011;48.880;9.190;2023-03-01T07:50:14;2.78;;;2.58;;
37867;SDS011;24011;48.880;9.190;2023-03-01T07:52:47;3.10;;;2.90;;
37867;SDS011;24011;48.880;9.190;2023-03-01T07:55:17;3.20;;;2.97;;
37867;SDS011;24011;48.880;9.190;2023-03-01T07:57:50;2.63;;;2.42;;
37867;SDS011;24011;48.880;9.190;2023-03-01T08:00:19;2.80;;;2.60;;
37867;SDS011;24011;48.880;9.190;2023-03-01T08:02:48;2.90;;;2.70;;
37867;SDS011;24011;48.880;9.190;2023-03-01T08:05:21;3.05;;;2.83;;
37867;SDS011;24011;48.880;9.190;2023-03-01T08:07:51;3.10;;;2.90;;
37867;SDS011;24011;48.880;9.190;2023-03-01T08:10:21;2.70;;;2.50;;
37867;SDS011;24011;48.880;9.190;2023-03-01T08:12:50;2.83;;;2.63;;
37867;SDS011;24011;48.880;9.190;2023-03-01T08:15:23;2.92;;;2.72;;
37867;SDS011;24011;48.880;9.190;2023-03-01T08:17:52;3.08;;;2.83;;
37867;SDS011;24011;48.880;9.190;2023-03-01T08:20:22;2.88;;;2.67;;
37867;SDS011;24011;48.880;9.190;2023-03-01T08:22:53;300.27;;;273.67;;
37867;SDS011;24011;48.880;9.190;2023-03-01T08:25:22;286.20;;;261.45;;
37867;SDS011;24011;48.880;9.190;2023-03-01T08:27:52;287.17;;;262.13;;
37867;SDS011;24011;48.880;9.190;2023-03-01T08:30:22;293.98;;;267.85;;
37867;SDS011;24011;48.880;9.190;2023-03-01T08:32:51;296.17;;;269.80;;
37867;SDS011;24011;48.880;9.190;2023-03-01T08:35:21;295.70;;;269.25;;
37867;SDS011;24011;48.880;9.190;2023-03-01T08:37:50;296.63;;;270.08;;
37867;SDS011;24011;48.880;9.190;2023-03-01T08:40:21;296.17;;;269.63;;
37867;SDS011;24011;48.880;9.190;2023-03-01T08:42:51;297.35;;;270.70;;
37867;SDS011;24011;48.880;9.190;2023-03-01T08:45:21;297.30;;;270.67;;
37867;SDS011;24011;48.880;9.190;2023-03-01T08:47:51;297.13;;;270.48;;
37867;SDS011;24011;48.880;9.190;2023-03-01T08:50:21;297.40;;;270.75;;
37867;SDS011;24011;48.880;9.190;2023-03-01T08:52:51;297.85;;;271.13;;
37867;SDS011;24011;48.880;9.190;2023-03-01T08:55:21;297.57;;;270.80;;
37867;SDS011;24011;48.880;9.190;2023-03-01T08:57:50;299.25;;;272.25;;
37867;SDS011;24011;48.880;9.190;2023-03-01T09:00:20;296.33;;;269.83;;
37867;SDS011;24011;48.880;9.190;2023-03-01T09:02:50;296.38;;;269.95;;
37867;SDS011;24011;48.880;9.190;2023-03-01T09:09:34;300.63;;;273.42;;
37867;SDS011;24011;48.880;9.190;2023-03-01T09:12:07;301.45;;;274.15;;
37867;SDS011;24011;48.880;9.190;2023-03-01T09:14:39;300.75;;;273.50;;
37867;SDS011;24011;48.880;9.190;2023-03-01T09:17:09;299.40;;;272.48;;
37867;SDS011;24011;48.880;9.190;2023-03-01T09:19:40;298.98;;;272.20;;
37867;SDS011;24011;48.880;9.190;2023-03-01T09:22:09;297.58;;;271.00;;
37867;SDS011;24011;48.880;9.190;2023-03-01T09:24:40;301.58;;;274.30;;
37867;SDS011;24011;48.880;9.190;2023-03-01T09:27:09;302.93;;;275.40;;
37867;SDS011;24011;48.880;9.190;2023-03-01T09:29:39;303.17;;;275.48;;
37867;SDS011;24011;48.880;9.190;2023-03-01T09:32:08;303.58;;;276.02;;
37867;SDS011;24011;48.880;9.190;2023-03-01T09:34:37;303.65;;;276.05;;
37867;SDS011;24011;48.880;9.190;2023-03-01T09:37:20;2.30;;;2.10;;
37867;SDS011;24011;48.880;9.190;2023-03-01T09:39:50;2.67;;;2.38;;
37867;SDS011;24011;48.880;9.190;2023-03-01T09:42:19;2.92;;;2.72;;
37867;SDS011;24011;48.880;9.190;2023-03-01T09:44:49;2.53;;;2.40;;
37867;SDS011;24011;48.880;9.190;2023-03-01T09:47:25;2.30;;;2.17;;
37867;SDS011;24011;48.880;9.190;2023-03-01T09:49:59;2.80;;;2.60;;
37867;SDS011;24011;48.880;9.190;2023-03-01T09:52:34;2.50;;;2.30;;
37867;SDS011;24011;48.880;9.190;2023-03-01T09:55:10;2.60;;;2.40;;
37867;SDS011;24011;48.880;9.190;2023-03-01T09:57:43;2.70;;;2.50;;
37867;SDS011;24011;48.880;9.190;2023-03-01T10:00:22;2.47;;;2.38;;
37867;SDS011;24011;48.880;9.190;2023-03-01T10:03:01;2.67;;;2.47;;
37867;SDS011;24011;48.880;9.190;2023-03-01T10:05:40;2.65;;;2.45;;
37867;SDS011;24011;48.880;9.190;2023-03-01T10:11:16;303.42;;;276.13;;
37867;SDS011;24011;48.880;9.190;2023-03-01T10:14:01;302.65;;;275.38;;
37867;SDS011;24011;48.880;9.190;2023-03-01T10:16:36;7.85;;;7.13;;
37867;SDS011;24011;48.880;9.190;2023-03-01T10:19:11;2.42;;;2.30;;
37867;SDS011;24011;48.880;9.190;2023-03-01T10:21:45;3.60;;;2.47;;
37867;SDS011;24011;48.880;9.190;2023-03-01T10:24:16;2.25;;;2.15;;
37867;SDS011;24011;48.880;9.190;2023-03-01T10:26:52;304.52;;;277.23;;
37867;SDS011;24011;48.880;9.190;2023-03-01T10:29:23;300.60;;;273.60;;
37867;SDS011;24011;48.880;9.190;2023-03-01T10:31:57;302.17;;;274.92;;
37867;SDS011;24011;48.880;9.190;2023-03-01T10:34:27;2.80;;;2.60;;
37867;SDS011;24011;48.880;9.190;2023-03-01T10:37:01;2.75;;;2.55;;
37867;SDS011;24011;48.880;9.190;2023-03-01T10:42:27;2.60;;;2.40;;
37867;SDS011;24011;48.880;9.190;2023-03-01T10:44:58;5.75;;;2.22;;
37867;SDS011;24011;48.880;9.190;2023-03-01T10:47:44;2.67;;;2.47;;
37867;SDS011;24011;48.880;9.190;2023-03-01T10:50:20;2.60;;;2.30;;
37867;SDS011;24011;48.880;9.190;2023-03-01T10:52:56;2.55;;;2.35;;
37867;SDS011;24011;48.880;9.190;2023-03-01T10:55:31;2.40;;;2.22;;
37867;SDS011;24011;48.880;9.190;2023-03-01T10:58:09;301.02;;;274.02;;
37867;SDS011;24011;48.880;9.190;2023-03-01T11:00:47;299.05;;;272.25;;
37867;SDS011;24011;48.880;9.190;2023-03-01T11:03:21;295.92;;;269.50;;
37867;SDS011;24011;48.880;9.190;2023-03-01T11:05:54;297.42;;;270.77;;
37867;SDS011;24011;48.880;9.190;2023-03-01T11:08:34;214.45;;;193.73;;
37867;SDS011;24011;48.880;9.190;2023-03-01T11:11:07;2.60;;;2.40;;
37867;SDS011;24011;48.880;9.190;2023-03-01T11:13:58;2.60;;;2.40;;
37867;SDS011;24011;48.880;9.190;2023-03-01T11:16:42;2.60;;;2.40;;
37867;SDS011;24011;48.880;9.190;2023-03-01T11:32:11;2.35;;;2.15;;
37867;SDS011;24011;48.880;9.190;2023-03-01T11:39:04;2.70;;;2.50;;
37867;SDS011;24011;48.880;9.190;2023-03-01T12:38:59;3.10;;;2.80;;
37867;SDS011;24011;48.880;9.190;2023-03-01T13:13:13;293.75;;;268.08;;
37867;SDS011;24011;48.880;9.190;2023-03-01T13:15:50;2.67;;;2.47;;
37867;SDS011;24011;48.880;9.190;2023-03-01T13:18:32;2.60;;;2.40;;
37867;SDS011;24011;48.880;9.190;2023-03-01T13:21:02;2.70;;;2.50;;
37867;SDS011;24011;48.880;9.190;2023-03-01T13:23:33;3.28;;;2.50;;
37867;SDS011;24011;48.880;9.190;2023-03-01T13:26:08;3.58;;;2.60;;
37867;SDS011;24011;48.880;9.190;2023-03-01T13:28:48;2.15;;;2.05;;
37867;SDS011;24011;48.880;9.190;2023-03-01T13:34:41;2.50;;;2.30;;
37867;SDS011;24011;48.880;9.190;2023-03-01T13:37:20;2.35;;;2.20;;
37867;SDS011;24011;48.880;9.190;2023-03-01T13:39:52;2.35;;;2.25;;
37867;SDS011;24011;48.880;9.190;2023-03-01T13:42:35;2.17;;;2.08;;
37867;SDS011;24011;48.880;9.190;2023-03-01T13:47:50;2.13;;;2.03;;
37867;SDS011;24011;48.880;9.190;2023-03-01T13:50:28;2.55;;;2.35;;
37867;SDS011;24011;48.880;9.190;2023-03-01T13:53:02;2.28;;;2.13;;
37867;SDS011;24011;48.880;9.190;2023-03-01T13:55:37;2.22;;;2.13;;
37867;SDS011;24011;48.880;9.190;2023-03-01T13:58:18;4.22;;;3.85;;
37867;SDS011;24011;48.880;9.190;2023-03-01T14:00:57;298.25;;;272.20;;
37867;SDS011;24011;48.880;9.190;2023-03-01T14:03:30;297.40;;;271.35;;
37867;SDS011;24011;48.880;9.190;2023-03-01T14:06:04;296.67;;;270.67;;
37867;SDS011;24011;48.880;9.190;2023-03-01T14:08:46;295.17;;;269.33;;
37867;SDS011;24011;48.880;9.190;2023-03-01T14:11:24;2.00;;;1.90;;
37867;SDS011;24011;48.880;9.190;2023-03-01T14:14:06;2.40;;;2.20;;
37867;SDS011;24011;48.880;9.190;2023-03-01T14:17:01;2.22;;;2.13;;
37867;SDS011;24011;48.880;9.190;2023-03-01T14:19:42;2.45;;;2.25;;
37867;SDS011;24011;48.880;9.190;2023-03-01T14:22:17;2.70;;;2.50;;
37867;SDS011;24011;48.880;9.190;2023-03-01T14:24:52;2.22;;;2.13;;
37867;SDS011;24011;48.880;9.190;2023-03-01T14:27:23;2.13;;;2.03;;
37867;SDS011;24011;48.880;9.190;2023-03-01T14:29:55;2.80;;;2.60;;
37867;SDS011;24011;48.880;9.190;2023-03-01T14:32:28;2.23;;;2.13;;
37867;SDS011;24011;48.880;9.190;2023-03-01T14:35:00;2.40;;;2.20;;
37867;SDS011;24011;48.880;9.190;2023-03-01T14:37:32;2.28;;;2.17;;
37867;SDS011;24011;48.880;9.190;2023-03-01T14:40:03;2.42;;;2.30;;
37867;SDS011;24011;48.880;9.190;2023-03-01T14:45:04;2.22;;;2.13;;
37867;SDS011;24011;48.880;9.190;2023-03-01T14:47:37;38.03;;;34.20;;
37867;SDS011;24011;48.880;9.190;2023-03-01T14:50:15;2.53;;;2.33;;
37867;SDS011;24011;48.880;9.190;2023-03-01T14:52:50;2.72;;;2.53;;
37867;SDS011;24011;48.880;9.190;2023-03-01T14:55:25;2.63;;;2.42;;
37867;SDS011;24011;48.880;9.190;2023-03-01T14:57:58;2.30;;;2.20;;
37867;SDS011;24011;48.880;9.190;2023-03-01T15:00:30;2.53;;;2.33;;
37867;SDS011;24011;48.880;9.190;2023-03-01T15:03:05;2.53;;;2.33;;
37867;SDS011;24011;48.880;9.190;2023-03-01T15:05:40;2.47;;;2.28;;
37867;SDS011;24011;48.880;9.190;2023-03-01T15:08:15;2.67;;;2.47;;
37867;SDS011;24011;48.880;9.190;2023-03-01T15:10:57;2.25;;;2.10;;
37867;SDS011;24011;48.880;9.190;2023-03-01T15:13:30;2.60;;;2.40;;
37867;SDS011;24011;48.880;9.190;2023-03-01T15:16:09;2.70;;;2.50;;
37867;SDS011;24011;48.880;9.190;2023-03-01T15:21:15;2.78;;;2.58;;
37867;SDS011;24011;48.880;9.190;2023-03-01T15:23:48;2.70;;;2.50;;
37867;SDS011;24011;48.880;9.190;2023-03-01T15:26:24;2.90;;;2.70;;
37867;SDS011;24011;48.880;9.190;2023-03-01T15:28:57;2.58;;;2.40;;
37867;SDS011;24011;48.880;9.190;2023-03-01T15:31:32;2.60;;;2.40;;
37867;SDS011;24011;48.880;9.190;2023-03-01T15:34:20;2.80;;;2.60;;
37867;SDS011;24011;48.880;9.190;2023-03-01T15:36:52;2.90;;;2.60;;
37867;SDS011;24011;48.880;9.190;2023-03-01T15:39:27;2.50;;;2.30;;
37867;SDS011;24011;48.880;9.190;2023-03-01T15:42:09;2.28;;;2.08;;
37867;SDS011;24011;48.880;9.190;2023-03-01T15:50:15;2.03;;;1.92;;
37867;SDS011;24011;48.880;9.190;2023-03-01T15:52:46;3.00;;;2.80;;
37867;SDS011;24011;48.880;9.190;2023-03-01T15:55:17;3.05;;;2.25;;
37867;SDS011;24011;48.880;9.190;2023-03-01T15:57:57;3.00;;;2.40;;
37867;SDS011;24011;48.880;9.190;2023-03-01T16:00:28;2.50;;;2.33;;
37867;SDS011;24011;48.880;9.190;2023-03-01T16:03:01;2.40;;;2.20;;
37867;SDS011;24011;48.880;9.190;2023-03-01T16:05:32;2.28;;;2.17;;
37867;SDS011;24011;48.880;9.190;2023-03-01T16:08:05;2.50;;;2.30;;
37867;SDS011;24011;48.880;9.190;2023-03-01T16:10:36;2.72;;;2.53;;
37867;SDS011;24011;48.880;9.190;2023-03-01T16:13:07;2.10;;;2.00;;
37867;SDS011;24011;48.880;9.190;2023-03-01T16:15:38;2.40;;;2.20;;
37867;SDS011;24011;48.880;9.190;2023-03-01T16:18:09;2.13;;;2.03;;
37867;SDS011;24011;48.880;9.190;2023-03-01T16:20:43;2.03;;;1.92;;
37867;SDS011;24011;48.880;9.190;2023-03-01T16:23:14;2.15;;;2.05;;
37867;SDS011;24011;48.880;9.190;2023-03-01T16:25:48;2.47;;;2.30;;
37867;SDS011;24011;48.880;9.190;2023-03-01T16:28:34;2.15;;;2.00;;
37867;SDS011;24011;48.880;9.190;2023-03-01T16:31:09;2.08;;;1.98;;
37867;SDS011;24011;48.880;9.190;2023-03-01T16:33:39;2.55;;;2.35;;
37867;SDS011;24011;48.880;9.190;2023-03-01T16:36:18;2.33;;;2.20;;
37867;SDS011;24011;48.880;9.190;2023-03-01T16:38:52;2.47;;;2.28;;
37867;SDS011;24011;48.880;9.190;2023-03-01T16:41:23;2.10;;;2.00;;
37867;SDS011;24011;48.880;9.190;2023-03-01T16:43:54;2.13;;;2.03;;
37867;SDS011;24011;48.880;9.190;2023-03-01T16:46:32;2.33;;;2.17;;
37867;SDS011;24011;48.880;9.190;2023-03-01T16:49:06;2.17;;;2.03;;
37867;SDS011;24011;48.880;9.190;2023-03-01T16:51:40;2.08;;;1.98;;
37867;SDS011;24011;48.880;9.190;2023-03-01T16:54:12;2.10;;;2.00;;
37867;SDS011;24011;48.880;9.190;2023-03-01T16:56:43;2.15;;;1.95;;
37867;SDS011;24011;48.880;9.190;2023-03-01T16:59:15;2.35;;;2.20;;
37867;SDS011;24011;48.880;9.190;2023-03-01T17:01:49;2.40;;;2.20;;
37867;SDS011;24011;48.880;9.190;2023-03-01T17:04:20;2.40;;;2.20;;
37867;SDS011;24011;48.880;9.190;2023-03-01T17:06:54;2.15;;;2.05;;
37867;SDS011;24011;48.880;9.190;2023-03-01T17:09:25;2.45;;;2.25;;
37867;SDS011;24011;48.880;9.190;2023-03-01T17:11:57;2.17;;;2.08;;
37867;SDS011;24011;48.880;9.190;2023-03-01T17:14:29;2.30;;;2.10;;
37867;SDS011;24011;48.880;9.190;2023-03-01T17:17:00;2.20;;;2.10;;
37867;SDS011;24011;48.880;9.190;2023-03-01T17:19:31;3.15;;;1.92;;
37867;SDS011;24011;48.880;9.190;2023-03-01T17:22:05;1.88;;;1.77;;
37867;SDS011;24011;48.880;9.190;2023-03-01T17:24:41;2.08;;;1.98;;
37867;SDS011;24011;48.880;9.190;2023-03-01T17:27:15;2.03;;;1.92;;
37867;SDS011;24011;48.880;9.190;2023-03-01T17:29:49;1.90;;;1.80;;
37867;SDS011;24011;48.880;9.190;2023-03-01T17:32:20;2.00;;;1.90;;
37867;SDS011;24011;48.880;9.190;2023-03-01T17:34:52;2.30;;;2.20;;
37867;SDS011;24011;48.880;9.190;2023-03-01T17:37:25;2.13;;;2.03;;
37867;SDS011;24011;48.880;9.190;2023-03-01T17:39:59;2.20;;;2.05;;
37867;SDS011;24011;48.880;9.190;2023-03-01T17:42:30;2.30;;;2.20;;
37867;SDS011;24011;48.880;9.190;2023-03-01T17:45:02;2.30;;;2.20;;
37867;SDS011;24011;48.880;9.190;2023-03-01T17:47:35;2.47;;;2.28;;
37867;SDS011;24011;48.880;9.190;2023-03-01T17:50:08;2.67;;;2.47;;
37867;SDS011;24011;48.880;9.190;2023-03-01T17:52:43;2.40;;;2.20;;
37867;SDS011;24011;48.880;9.190;2023-03-01T17:55:13;2.50;;;2.30;;
37867;SDS011;24011;48.880;9.190;2023-03-01T17:57:45;2.33;;;2.20;;
37867;SDS011;24011;48.880;9.190;2023-03-01T18:00:15;2.60;;;2.40;;
37867;SDS011;24011;48.880;9.190;2023-03-01T18:02:53;2.20;;;2.10;;
37867;SDS011;24011;48.880;9.190;2023-03-01T18:05:25;2.45;;;2.28;;
37867;SDS011;24011;48.880;9.190;2023-03-01T18:08:01;2.45;;;2.25;;
37867;SDS011;24011;48.880;9.190;2023-03-01T18:10:33;2.35;;;2.25;;
37867;SDS011;24011;48.880;9.190;2023-03-01T18:13:05;2.40;;;2.20;;
37867;SDS011;24011;48.880;9.190;2023-03-01T18:15:41;2.53;;;2.33;;
37867;SDS011;24011;48.880;9.190;2023-03-01T18:18:15;2.80;;;2.60;;
37867;SDS011;24011;48.880;9.190;2023-03-01T18:20:54;2.67;;;2.47;;
37867;SDS011;24011;48.880;9.190;2023-03-01T18:23:29;2.67;;;2.47;;
37867;SDS011;24011;48.880;9.190;2023-03-01T18:26:02;2.65;;;2.45;;